Time;durP1;ratioP1;P1;durP2;ratioP2;P2;SDS_P1;SDS_P2;PMS_P1;PMS_P2;Temp;Humidity;BMP_temperature;BMP_pressure;BME280_temperature;BME280_humidity;BME280_pressure;Samples;Min_cycle;Max_cycle;Signal;HPM_P1;HPM_P2
2021/01/30 00:00:19;;;;;;;5.05;3.47;;;3.40;89.40;;;;;;2063989;28;20478;-82
2021/01/30 00:01:20;;;;;;;5.20;3.20;;;3.40;89.40;;;;;;2077309;28;20026;-81
2021/01/30 00:02:20;;;;;;;5.72;3.22;;;3.40;89.50;;;;;;2080148;28;20049;-82
2021/01/30 00:03:21;;;;;;;4.65;3.40;;;3.40;90.00;;;;;;2080732;28;20117;-81
2021/01/30 00:04:21;;;;;;;5.00;3.40;;;3.40;89.60;;;;;;2088480;28;20029;-82
2021/01/30 00:05:23;;;;;;;5.20;3.15;;;3.50;89.60;;;;;;2071607;28;20026;-81
2021/01/30 00:06:24;;;;;;;6.03;3.70;;;3.40;89.50;;;;;;2086053;28;20033;-81
2021/01/30 00:07:24;;;;;;;5.68;3.97;;;3.40;89.50;;;;;;2089064;28;20385;-82
2021/01/30 00:08:25;;;;;;;5.32;3.75;;;3.40;89.40;;;;;;2079804;28;20034;-82
2021/01/30 00:09:26;;;;;;;6.28;4.20;;;3.40;89.40;;;;;;2080271;28;20029;-82
2021/01/30 00:10:27;;;;;;;5.63;4.03;;;3.40;89.50;;;;;;2085070;28;20032;-81
2021/01/30 00:11:28;;;;;;;5.18;4.00;;;3.40;89.90;;;;;;2072523;28;20492;-82
2021/01/30 00:12:28;;;;;;;5.72;4.53;;;3.40;89.30;;;;;;2080095;28;20025;-80
2021/01/30 00:13:29;;;;;;;5.80;4.35;;;3.40;89.40;;;;;;2071839;28;20053;-81
2021/01/30 00:14:36;;;;;;;6.10;4.00;;;3.30;89.30;;;;;;2078935;28;20049;-82
2021/01/30 00:15:37;;;;;;;5.32;4.13;;;3.30;89.50;;;;;;2080600;28;20017;-81
2021/01/30 00:16:37;;;;;;;5.28;4.10;;;3.30;89.60;;;;;;2068929;28;20053;-81
2021/01/30 00:17:38;;;;;;;5.65;4.20;;;3.40;89.70;;;;;;2072446;28;20018;-81
2021/01/30 00:18:39;;;;;;;6.45;4.32;;;3.40;89.50;;;;;;2085059;28;20495;-82
2021/01/30 00:19:39;;;;;;;5.15;4.22;;;3.40;89.50;;;;;;2085439;28;20100;-81
2021/01/30 00:20:40;;;;;;;6.13;4.38;;;3.40;89.40;;;;;;2079819;28;20042;-81
2021/01/30 00:21:41;;;;;;;5.80;4.70;;;3.40;89.50;;;;;;2064240;28;20023;-81
2021/01/30 00:22:41;;;;;;;5.15;4.35;;;3.30;89.30;;;;;;2064068;28;20034;-82
2021/01/30 00:23:42;;;;;;;6.15;4.72;;;3.40;89.40;;;;;;2072419;28;20034;-82
2021/01/30 00:24:43;;;;;;;6.32;5.15;;;3.30;89.10;;;;;;2080252;28;20040;-82
2021/01/30 00:25:44;;;;;;;6.22;4.93;;;3.30;89.00;;;;;;2080301;28;20037;-82
2021/01/30 00:26:50;;;;;;;6.72;5.00;;;3.30;89.80;;;;;;2079695;28;20022;-82
2021/01/30 00:27:50;;;;;;;6.45;5.05;;;3.30;89.30;;;;;;2071659;28;20026;-82
2021/01/30 00:28:51;;;;;;;7.53;5.55;;;3.20;89.20;;;;;;2064419;28;20035;-82
2021/01/30 00:29:51;;;;;;;6.65;4.95;;;3.20;89.20;;;;;;2078078;28;20036;-82
2021/01/30 00:30:52;;;;;;;7.75;5.85;;;3.20;89.20;;;;;;2072216;28;20030;-82
2021/01/30 00:31:53;;;;;;;7.97;6.28;;;3.20;89.30;;;;;;2080194;28;20065;-82
2021/01/30 00:32:54;;;;;;;6.90;5.38;;;3.10;89.20;;;;;;2080666;28;20518;-82
2021/01/30 00:33:54;;;;;;;8.98;6.13;;;3.10;89.30;;;;;;2088587;28;20017;-81
2021/01/30 00:34:55;;;;;;;9.75;6.13;;;3.00;89.40;;;;;;2071140;28;20121;-82
2021/01/30 00:35:56;;;;;;;7.88;6.00;;;3.00;89.40;;;;;;2055418;28;20023;-81
2021/01/30 00:37:02;;;;;;;10.10;7.28;;;3.00;89.40;;;;;;2071868;28;20061;-81
2021/01/30 00:38:04;;;;;;;8.90;6.38;;;3.00;89.40;;;;;;2085001;28;20029;-82
2021/01/30 00:39:05;;;;;;;9.68;7.15;;;3.00;89.50;;;;;;2075087;28;20144;-81
2021/01/30 00:40:07;;;;;;;9.10;6.80;;;3.00;89.50;;;;;;2072155;28;20038;-81
2021/01/30 00:41:08;;;;;;;7.00;6.18;;;2.90;89.40;;;;;;2081540;28;20029;-81
2021/01/30 00:42:11;;;;;;;7.90;6.50;;;2.90;89.50;;;;;;2074064;28;20045;-82
2021/01/30 00:43:12;;;;;;;8.45;6.65;;;2.90;89.60;;;;;;2082214;28;20013;-81
2021/01/30 00:44:12;;;;;;;8.55;6.10;;;2.90;89.60;;;;;;2081967;28;20024;-82
2021/01/30 00:45:16;;;;;;;8.95;6.05;;;2.80;89.60;;;;;;2073169;28;20492;-82
2021/01/30 00:46:17;;;;;;;8.27;6.25;;;2.80;89.70;;;;;;2081834;28;20120;-80
2021/01/30 00:47:18;;;;;;;8.02;6.32;;;2.90;89.80;;;;;;2082090;28;20104;-82
2021/01/30 00:48:19;;;;;;;8.10;6.32;;;2.80;89.70;;;;;;2082065;28;20021;-82
2021/01/30 00:49:19;;;;;;;7.40;5.82;;;2.80;89.70;;;;;;2073590;28;20061;-82
2021/01/30 00:50:20;;;;;;;6.75;5.70;;;2.90;89.80;;;;;;2073635;28;20033;-81
2021/01/30 00:51:21;;;;;;;8.88;6.55;;;2.80;89.80;;;;;;2082167;28;20120;-82
2021/01/30 00:52:24;;;;;;;8.60;6.72;;;2.90;89.80;;;;;;2073968;28;20117;-82
2021/01/30 00:53:25;;;;;;;7.95;6.40;;;2.80;89.60;;;;;;2072372;28;20578;-81
2021/01/30 00:54:25;;;;;;;7.88;6.18;;;2.80;89.60;;;;;;2088629;28;20116;-82
2021/01/30 00:55:26;;;;;;;9.35;6.75;;;2.80;89.60;;;;;;2090053;28;20029;-81
2021/01/30 00:56:27;;;;;;;9.68;7.10;;;2.80;89.70;;;;;;2081707;28;20037;-82
2021/01/30 00:57:27;;;;;;;9.77;7.63;;;2.80;89.60;;;;;;2089464;28;20036;-82
2021/01/30 00:58:28;;;;;;;10.30;7.82;;;2.70;89.40;;;;;;2082040;28;20049;-81
2021/01/30 00:59:28;;;;;;;10.13;7.97;;;2.70;89.60;;;;;;2065841;28;20054;-82
2021/01/30 01:00:29;;;;;;;10.10;8.18;;;2.70;89.60;;;;;;2081544;28;20060;-82
2021/01/30 01:01:38;;;;;;;9.82;7.97;;;2.70;89.70;;;;;;2080221;28;20379;-82
2021/01/30 01:02:38;;;;;;;11.48;8.88;;;2.70;89.80;;;;;;2082049;28;20071;-82
2021/01/30 01:03:40;;;;;;;10.65;8.75;;;2.60;89.70;;;;;;2073217;28;20462;-82
2021/01/30 01:04:44;;;;;;;10.00;7.93;;;2.60;89.80;;;;;;2079417;28;20104;-81
2021/01/30 01:05:44;;;;;;;10.68;8.20;;;2.60;90.00;;;;;;2082755;28;20079;-81
2021/01/30 01:06:46;;;;;;;11.50;8.40;;;2.60;90.00;;;;;;2081817;28;20395;-82
2021/01/30 01:07:47;;;;;;;10.00;7.65;;;2.60;90.00;;;;;;2080237;28;20021;-81
2021/01/30 01:08:48;;;;;;;10.02;7.75;;;2.60;90.00;;;;;;2073890;28;20027;-82
2021/01/30 01:09:48;;;;;;;9.93;8.27;;;2.70;89.90;;;;;;2081982;28;20118;-81
2021/01/30 01:10:49;;;;;;;10.88;8.93;;;2.60;89.70;;;;;;2086160;28;20021;-81
2021/01/30 01:11:51;;;;;;;10.82;8.88;;;2.60;89.70;;;;;;2082909;28;20538;-82
2021/01/30 01:12:52;;;;;;;11.80;8.98;;;2.60;89.80;;;;;;2090362;28;20021;-81
2021/01/30 01:13:53;;;;;;;10.40;9.15;;;2.60;89.80;;;;;;2090669;28;20022;-81
2021/01/30 01:14:53;;;;;;;11.15;9.13;;;2.50;89.70;;;;;;2082710;28;20106;-81
2021/01/30 01:15:55;;;;;;;12.88;9.98;;;2.50;89.80;;;;;;2089577;28;20065;-83
2021/01/30 01:16:56;;;;;;;11.70;9.63;;;2.50;89.80;;;;;;2089608;28;20094;-82
2021/01/30 01:17:57;;;;;;;12.10;9.70;;;2.50;89.80;;;;;;2066043;28;20033;-82
2021/01/30 01:18:57;;;;;;;10.43;8.88;;;2.40;89.80;;;;;;2071218;28;20078;-81
2021/01/30 01:19:58;;;;;;;12.65;9.48;;;2.50;90.00;;;;;;2083995;28;20032;-82
2021/01/30 01:20:59;;;;;;;11.43;8.85;;;2.40;90.00;;;;;;2075665;28;20053;-81
2021/01/30 01:21:59;;;;;;;12.73;9.45;;;2.40;90.00;;;;;;2074706;28;20081;-81
2021/01/30 01:23:00;;;;;;;10.70;8.93;;;2.40;90.00;;;;;;2090716;28;20502;-81
2021/01/30 01:24:01;;;;;;;10.98;8.88;;;2.50;90.00;;;;;;2090303;28;20025;-81
2021/01/30 01:25:02;;;;;;;11.50;8.93;;;2.40;89.90;;;;;;2075137;28;20488;-81
2021/01/30 01:26:03;;;;;;;11.48;9.10;;;2.40;90.00;;;;;;2082882;28;20033;-81
2021/01/30 01:27:04;;;;;;;11.25;9.07;;;2.40;90.00;;;;;;2082133;28;20136;-81
2021/01/30 01:28:04;;;;;;;12.48;9.60;;;2.40;90.00;;;;;;2073076;28;20116;-82
2021/01/30 01:29:05;;;;;;;12.50;9.82;;;2.40;90.00;;;;;;2065585;28;20026;-82
2021/01/30 01:30:09;;;;;;;11.65;9.40;;;2.30;89.90;;;;;;2077922;28;20022;-81
2021/01/30 01:31:11;;;;;;;12.10;9.27;;;2.40;90.00;;;;;;2081990;28;20072;-81
2021/01/30 01:32:11;;;;;;;11.25;8.45;;;2.40;90.00;;;;;;2081683;28;20028;-82
2021/01/30 01:33:12;;;;;;;13.50;9.10;;;2.40;90.00;;;;;;2069361;28;20025;-82
2021/01/30 01:34:12;;;;;;;10.85;8.15;;;2.40;90.00;;;;;;2073755;28;20499;-81
2021/01/30 01:35:18;;;;;;;10.48;8.25;;;2.30;90.20;;;;;;2078835;28;20037;-82
2021/01/30 01:36:20;;;;;;;10.98;8.32;;;2.40;90.00;;;;;;2073680;28;20065;-80
2021/01/30 01:37:21;;;;;;;11.60;8.73;;;2.40;90.00;;;;;;2088626;28;20577;-81
2021/01/30 01:38:22;;;;;;;10.63;8.27;;;2.40;90.00;;;;;;2073287;28;20182;-82
2021/01/30 01:39:23;;;;;;;11.27;8.60;;;2.40;90.00;;;;;;2073634;28;20022;-82
2021/01/30 01:40:44;;;;;;;11.23;8.65;;;2.40;89.90;;;;;;2079889;28;20053;-81
2021/01/30 01:41:44;;;;;;;;;;;2.40;89.90;;;;;;2082571;28;20042;-81
2021/01/30 01:42:45;;;;;;;12.68;9.20;;;2.30;89.80;;;;;;2081204;28;19956;-82
2021/01/30 01:43:45;;;;;;;11.95;9.30;;;2.30;89.80;;;;;;2082818;28;20030;-81
2021/01/30 01:44:46;;;;;;;10.32;7.90;;;2.30;89.70;;;;;;2077040;28;20504;-81
2021/01/30 01:46:05;;;;;;;11.75;9.02;;;2.30;89.80;;;;;;2073771;28;20427;-81
2021/01/30 01:47:12;;;;;;;11.70;8.82;;;2.20;89.60;;;;;;2086952;28;20035;-81
2021/01/30 01:48:23;;;;;;;11.50;8.63;;;2.20;89.60;;;;;;2082592;28;20028;-81
2021/01/30 01:49:32;;;;;;;11.18;8.48;;;2.20;89.80;;;;;;2081645;28;20024;-81
2021/01/30 01:50:35;;;;;;;11.80;8.43;;;2.10;89.80;;;;;;2081220;28;20464;-81
2021/01/30 01:51:53;;;;;;;10.68;8.32;;;2.10;89.80;;;;;;2081336;28;20022;-80
2021/01/30 01:52:59;;;;;;;9.52;7.90;;;2.20;89.80;;;;;;2083441;28;20480;-81
2021/01/30 01:54:04;;;;;;;10.10;7.68;;;2.10;89.70;;;;;;2081637;28;20028;-81
2021/01/30 01:55:17;;;;;;;9.85;8.18;;;2.10;89.70;;;;;;2080738;28;20030;-81
2021/01/30 01:56:24;;;;;;;10.07;7.93;;;2.10;89.60;;;;;;2088644;28;20029;-81
2021/01/30 01:57:26;;;;;;;9.25;7.55;;;2.10;89.60;;;;;;2096230;28;20044;-81
2021/01/30 01:58:30;;;;;;;9.02;7.53;;;2.10;89.70;;;;;;2082259;28;20132;-80
2021/01/30 01:59:31;;;;;;;9.13;7.20;;;2.10;89.70;;;;;;2081352;28;20091;-81
2021/01/30 02:00:31;;;;;;;8.98;6.80;;;2.10;89.70;;;;;;2071914;28;20034;-81
2021/01/30 02:01:35;;;;;;;8.70;6.90;;;2.10;89.60;;;;;;2089308;28;20372;-81
2021/01/30 02:02:36;;;;;;;8.65;6.70;;;2.10;89.50;;;;;;2089299;28;20482;-81
2021/01/30 02:03:37;;;;;;;8.60;7.07;;;2.10;89.40;;;;;;2072951;28;20022;-82
2021/01/30 02:04:39;;;;;;;8.70;7.15;;;2.10;89.40;;;;;;2073559;28;20026;-81
2021/01/30 02:05:40;;;;;;;9.05;6.88;;;2.10;89.30;;;;;;2072486;28;20056;-82
2021/01/30 02:06:44;;;;;;;8.70;6.95;;;2.00;89.00;;;;;;2073311;28;20036;-81
2021/01/30 02:07:47;;;;;;;8.40;6.50;;;2.00;88.90;;;;;;2078805;28;20120;-82
2021/01/30 02:08:49;;;;;;;7.68;6.45;;;2.00;89.00;;;;;;2077414;28;20025;-82
2021/01/30 02:09:50;;;;;;;7.88;6.40;;;2.00;89.10;;;;;;2081476;28;20132;-82
2021/01/30 02:10:52;;;;;;;9.02;6.97;;;1.90;89.00;;;;;;2080683;28;20060;-82
2021/01/30 02:12:06;;;;;;;9.07;6.63;;;1.90;89.10;;;;;;2081434;28;20403;-82
2021/01/30 02:13:12;;;;;;;9.80;6.88;;;1.90;89.00;;;;;;2091418;28;20017;-82
2021/01/30 02:14:12;;;;;;;7.55;6.28;;;1.90;89.00;;;;;;2088685;28;20052;-82
2021/01/30 02:15:16;;;;;;;8.30;6.60;;;1.90;88.80;;;;;;2080793;28;20108;-81
2021/01/30 02:16:26;;;;;;;8.68;6.95;;;1.90;88.70;;;;;;2077838;28;20390;-81
2021/01/30 02:17:37;;;;;;;9.63;6.45;;;1.90;88.80;;;;;;2074380;28;20026;-81
2021/01/30 02:18:56;;;;;;;;;;;1.90;88.90;;;;;;2081868;28;20071;-81
2021/01/30 02:20:30;;;;;;;7.35;5.90;;;1.90;88.90;;;;;;2083681;28;20321;-82
2021/01/30 02:22:12;;;;;;;7.55;5.60;;;1.90;88.90;;;;;;2077231;28;20061;-81
2021/01/30 02:23:31;;;;;;;7.70;6.13;;;1.90;88.80;;;;;;2073111;28;20029;-82
2021/01/30 02:24:55;;;;;;;7.30;5.68;;;1.90;88.80;;;;;;2080790;28;20021;-82
2021/01/30 02:26:24;;;;;;;7.88;6.10;;;1.90;88.80;;;;;;2084823;28;20587;-82
2021/01/30 02:27:52;;;;;;;8.52;6.20;;;1.90;88.80;;;;;;2081429;28;20068;-82
2021/01/30 02:29:40;;;;;;;8.13;6.10;;;1.90;88.70;;;;;;2085102;28;20123;-81
2021/01/30 02:30:47;;;;;;;8.05;6.00;;;1.90;88.60;;;;;;2080534;28;20144;-81
2021/01/30 02:31:50;;;;;;;7.25;5.80;;;1.80;88.60;;;;;;2075598;28;20030;-82
2021/01/30 02:33:12;;;;;;;11.32;6.85;;;1.80;88.60;;;;;;2081403;28;20151;-82
2021/01/30 02:34:42;;;;;;;9.27;6.70;;;1.80;88.60;;;;;;2081476;28;20053;-81
2021/01/30 02:36:21;;;;;;;7.75;6.03;;;1.80;88.50;;;;;;2096058;28;20040;-81
2021/01/30 02:37:29;;;;;;;9.45;6.82;;;1.80;88.40;;;;;;2079773;28;20014;-80
2021/01/30 02:38:34;;;;;;;9.85;7.68;;;1.70;88.30;;;;;;2081228;28;20044;-81
2021/01/30 02:39:42;;;;;;;10.25;7.30;;;1.70;88.20;;;;;;2080917;28;20048;-81
2021/01/30 02:40:47;;;;;;;9.40;7.45;;;1.70;88.30;;;;;;2081046;28;20463;-82
2021/01/30 02:42:02;;;;;;;10.90;8.45;;;1.70;88.30;;;;;;2081149;28;20404;-82
2021/01/30 02:43:11;;;;;;;9.65;7.30;;;1.70;88.40;;;;;;2088055;28;20059;-81
2021/01/30 02:44:15;;;;;;;9.07;7.40;;;1.60;88.40;;;;;;2086671;28;20091;-81
2021/01/30 02:45:22;;;;;;;8.63;6.95;;;1.60;88.40;;;;;;2073309;28;20423;-81
2021/01/30 02:46:30;;;;;;;9.00;7.35;;;1.70;88.40;;;;;;2069940;28;20022;-82
2021/01/30 02:47:36;;;;;;;10.15;7.50;;;1.60;88.30;;;;;;2072763;28;20025;-82
2021/01/30 02:48:42;;;;;;;9.50;7.30;;;1.70;88.40;;;;;;2077292;28;20017;-82
2021/01/30 02:49:47;;;;;;;11.00;8.02;;;1.70;88.40;;;;;;2073658;28;20036;-82
2021/01/30 02:50:53;;;;;;;9.93;7.63;;;1.70;88.30;;;;;;2079969;28;20025;-82
2021/01/30 02:52:05;;;;;;;9.40;7.55;;;1.70;88.30;;;;;;2081134;28;20030;-82
2021/01/30 02:53:07;;;;;;;9.82;7.22;;;1.70;88.40;;;;;;2079968;28;20032;-82
2021/01/30 02:54:10;;;;;;;8.10;6.50;;;1.70;88.40;;;;;;2080952;28;20029;-82
2021/01/30 02:55:13;;;;;;;8.45;6.43;;;1.70;88.50;;;;;;2073529;28;20049;-81
2021/01/30 02:56:14;;;;;;;9.00;6.78;;;1.70;88.50;;;;;;2077432;28;20021;-82
2021/01/30 02:57:17;;;;;;;8.20;6.50;;;1.70;88.40;;;;;;2083588;28;20029;-82
2021/01/30 02:58:20;;;;;;;8.85;6.85;;;1.70;88.30;;;;;;2080850;28;20030;-82
2021/01/30 02:59:24;;;;;;;8.30;6.30;;;1.70;88.30;;;;;;2074010;28;20380;-81
2021/01/30 03:00:26;;;;;;;8.27;6.38;;;1.80;88.40;;;;;;2080920;28;20515;-82
2021/01/30 03:01:28;;;;;;;10.13;6.57;;;1.80;88.30;;;;;;2081147;28;20379;-82
2021/01/30 03:02:29;;;;;;;8.82;6.57;;;1.70;88.10;;;;;;2080862;28;20511;-81
2021/01/30 03:03:31;;;;;;;8.48;6.60;;;1.70;88.10;;;;;;2072446;28;20073;-82
2021/01/30 03:04:31;;;;;;;9.10;6.95;;;1.80;88.10;;;;;;2080353;28;20033;-82
2021/01/30 03:05:32;;;;;;;9.52;6.80;;;1.70;88.10;;;;;;2072535;28;20033;-81
2021/01/30 03:06:52;;;;;;;7.53;5.95;;;1.70;88.10;;;;;;2071743;28;20137;-81
2021/01/30 03:08:05;;;;;;;6.82;5.47;;;1.70;88.20;;;;;;2067367;28;20432;-81
2021/01/30 03:09:12;;;;;;;8.38;6.05;;;1.70;88.20;;;;;;2066632;28;20027;-82
2021/01/30 03:10:31;;;;;;;7.70;5.85;;;1.70;88.20;;;;;;2078799;28;20087;-81
2021/01/30 03:11:41;;;;;;;6.90;5.30;;;1.80;88.20;;;;;;2073304;28;20037;-81
2021/01/30 03:12:54;;;;;;;8.02;5.70;;;1.80;88.10;;;;;;2073945;28;20389;-81
2021/01/30 03:14:00;;;;;;;7.82;5.38;;;1.80;87.90;;;;;;2081190;28;20071;-82
2021/01/30 03:15:16;;;;;;;7.65;5.97;;;1.80;87.90;;;;;;2080495;28;20479;-81
2021/01/30 03:16:24;;;;;;;7.72;6.05;;;1.70;87.80;;;;;;2074952;28;20036;-82
2021/01/30 03:17:27;;;;;;;8.02;5.78;;;1.80;87.80;;;;;;2080155;28;20124;-82
2021/01/30 03:18:43;;;;;;;7.47;5.90;;;1.70;87.70;;;;;;2080541;28;20021;-82
2021/01/30 03:19:44;;;;;;;8.27;5.25;;;1.70;87.80;;;;;;2080340;28;20488;-82
2021/01/30 03:20:46;;;;;;;7.55;5.30;;;1.70;87.80;;;;;;2072575;28;20042;-82
2021/01/30 03:21:53;;;;;;;6.97;5.32;;;1.70;87.90;;;;;;2066710;28;20157;-81
2021/01/30 03:22:55;;;;;;;7.40;5.50;;;1.70;87.90;;;;;;2080950;28;20021;-81
2021/01/30 03:23:57;;;;;;;7.30;5.15;;;1.70;87.90;;;;;;2080597;28;20474;-81
2021/01/30 03:24:59;;;;;;;7.90;5.55;;;1.70;87.90;;;;;;2079131;28;20030;-81
2021/01/30 03:26:02;;;;;;;7.00;5.25;;;1.70;87.80;;;;;;2079640;28;20037;-82
2021/01/30 03:27:03;;;;;;;8.32;5.55;;;1.70;87.70;;;;;;2073197;28;20475;-81
2021/01/30 03:28:04;;;;;;;7.88;5.88;;;1.70;87.80;;;;;;2080874;28;20120;-81
2021/01/30 03:29:05;;;;;;;8.27;6.00;;;1.70;87.80;;;;;;2072409;28;20487;-81
2021/01/30 03:30:09;;;;;;;7.15;5.85;;;1.70;87.60;;;;;;2072881;28;20022;-81
2021/01/30 03:31:10;;;;;;;7.40;5.53;;;1.70;87.50;;;;;;2072463;28;20496;-82
2021/01/30 03:32:10;;;;;;;6.75;5.35;;;1.70;87.50;;;;;;2080920;28;20034;-82
2021/01/30 03:33:11;;;;;;;7.22;5.50;;;1.70;87.40;;;;;;2088950;28;20064;-82
2021/01/30 03:34:12;;;;;;;7.65;5.40;;;1.60;87.30;;;;;;2076504;28;20025;-81
2021/01/30 03:35:13;;;;;;;7.75;5.43;;;1.60;87.30;;;;;;2064266;28;20041;-82
2021/01/30 03:36:14;;;;;;;7.40;5.30;;;1.60;87.30;;;;;;2080102;28;20030;-82
2021/01/30 03:37:16;;;;;;;6.25;4.80;;;1.60;87.40;;;;;;2080165;28;20025;-82
2021/01/30 03:38:17;;;;;;;7.47;5.20;;;1.60;87.40;;;;;;2078508;28;20033;-82
2021/01/30 03:39:18;;;;;;;6.60;4.70;;;1.60;87.40;;;;;;2079421;28;20030;-81
2021/01/30 03:40:21;;;;;;;6.82;4.82;;;1.60;87.40;;;;;;2074575;28;20097;-82
2021/01/30 03:41:22;;;;;;;7.00;4.95;;;1.60;87.40;;;;;;2089104;28;20029;-82
2021/01/30 03:42:23;;;;;;;6.68;4.85;;;1.60;87.40;;;;;;2088655;28;20049;-81
2021/01/30 03:43:24;;;;;;;6.70;4.75;;;1.60;87.30;;;;;;2079476;28;20499;-82
2021/01/30 03:44:25;;;;;;;6.55;4.80;;;1.60;87.30;;;;;;2084670;28;20067;-82
2021/01/30 03:45:30;;;;;;;7.03;5.45;;;1.60;87.30;;;;;;2078826;28;20029;-82
2021/01/30 03:46:30;;;;;;;6.53;4.90;;;1.50;87.20;;;;;;2072832;28;20026;-82
2021/01/30 03:47:31;;;;;;;7.72;4.70;;;1.60;87.20;;;;;;2082319;28;20026;-82
2021/01/30 03:48:31;;;;;;;7.60;5.38;;;1.50;87.20;;;;;;2089007;28;20029;-82
2021/01/30 03:49:32;;;;;;;7.60;5.28;;;1.60;87.20;;;;;;2080318;28;20025;-82
2021/01/30 03:50:33;;;;;;;8.50;5.70;;;1.50;87.00;;;;;;2064381;28;20030;-82
2021/01/30 03:51:34;;;;;;;7.68;5.38;;;1.50;87.00;;;;;;2072330;28;20034;-82
2021/01/30 03:52:35;;;;;;;7.22;5.13;;;1.50;87.10;;;;;;2072647;28;20022;-82
2021/01/30 03:53:37;;;;;;;7.20;5.32;;;1.50;87.20;;;;;;2088141;28;20071;-82
2021/01/30 03:54:38;;;;;;;7.80;5.47;;;1.50;87.10;;;;;;2080275;28;20030;-82
2021/01/30 03:55:39;;;;;;;7.85;5.18;;;1.50;87.00;;;;;;2079879;28;20030;-82
2021/01/30 03:56:45;;;;;;;7.43;5.40;;;1.50;86.90;;;;;;2080647;28;20049;-82
2021/01/30 03:57:45;;;;;;;7.53;5.03;;;1.50;87.00;;;;;;2065197;28;20030;-82
2021/01/30 03:58:46;;;;;;;7.82;5.30;;;1.50;87.00;;;;;;2072629;28;20025;-82
2021/01/30 03:59:49;;;;;;;7.57;5.05;;;1.50;87.10;;;;;;2080323;28;20152;-82
2021/01/30 04:00:49;;;;;;;7.03;4.80;;;1.50;87.10;;;;;;2071400;28;20060;-82
2021/01/30 04:01:50;;;;;;;6.90;4.90;;;1.50;87.10;;;;;;2080434;28;20022;-82
2021/01/30 04:02:51;;;;;;;6.85;4.95;;;1.50;87.10;;;;;;2073779;28;20076;-82
2021/01/30 04:03:52;;;;;;;7.53;4.82;;;1.50;87.10;;;;;;2073513;28;20029;-81
2021/01/30 04:04:52;;;;;;;6.32;4.43;;;1.40;87.00;;;;;;2072728;28;20038;-82
2021/01/30 04:05:53;;;;;;;7.00;4.20;;;1.50;87.10;;;;;;2074785;28;20476;-82
2021/01/30 04:06:54;;;;;;;7.50;4.85;;;1.50;87.20;;;;;;2086032;28;20133;-82
2021/01/30 04:07:56;;;;;;;6.15;4.38;;;1.50;87.20;;;;;;2072458;28;20029;-82
2021/01/30 04:08:57;;;;;;;6.38;4.55;;;1.50;87.10;;;;;;2066698;28;20511;-82
2021/01/30 04:09:58;;;;;;;7.32;4.63;;;1.50;87.00;;;;;;2072233;28;20028;-82
2021/01/30 04:10:58;;;;;;;6.57;4.30;;;1.50;87.10;;;;;;2078826;28;20025;-82
2021/01/30 04:11:59;;;;;;;6.38;4.20;;;1.50;87.10;;;;;;2080638;28;20080;-82
2021/01/30 04:13:01;;;;;;;7.47;4.13;;;1.50;87.10;;;;;;2072595;28;20022;-82
2021/01/30 04:14:02;;;;;;;6.50;4.57;;;1.50;87.10;;;;;;2072610;28;20022;-81
2021/01/30 04:15:04;;;;;;;6.50;4.50;;;1.50;87.10;;;;;;2080504;28;20029;-82
2021/01/30 04:16:05;;;;;;;6.38;4.32;;;1.50;87.10;;;;;;2081653;28;20042;-81
2021/01/30 04:17:09;;;;;;;6.47;4.65;;;1.50;87.00;;;;;;2074103;28;20045;-81
2021/01/30 04:18:12;;;;;;;7.00;4.82;;;1.50;87.00;;;;;;2093488;28;20040;-81
2021/01/30 04:19:13;;;;;;;6.47;4.65;;;1.50;86.90;;;;;;2090016;28;20075;-82
2021/01/30 04:20:14;;;;;;;6.28;4.63;;;1.50;86.90;;;;;;2074030;28;20048;-83
2021/01/30 04:21:15;;;;;;;6.45;4.57;;;1.50;86.80;;;;;;2073403;28;20061;-83
2021/01/30 04:22:16;;;;;;;6.13;4.32;;;1.50;86.80;;;;;;2070326;28;20030;-81
2021/01/30 04:23:17;;;;;;;6.22;4.60;;;1.50;86.90;;;;;;2082034;28;20053;-83
2021/01/30 04:24:18;;;;;;;6.25;4.30;;;1.50;86.90;;;;;;2082916;28;20032;-83
2021/01/30 04:25:21;;;;;;;8.75;4.57;;;1.50;86.80;;;;;;2073618;28;20403;-83
2021/01/30 04:26:22;;;;;;;6.97;4.80;;;1.50;86.80;;;;;;2081959;28;20051;-83
2021/01/30 04:27:23;;;;;;;6.40;4.57;;;1.50;86.80;;;;;;2073943;28;20056;-83
2021/01/30 04:28:23;;;;;;;6.43;4.82;;;1.40;86.70;;;;;;2074070;28;20026;-81
2021/01/30 04:29:24;;;;;;;6.22;4.72;;;1.40;86.60;;;;;;2074023;28;20553;-82
2021/01/30 04:30:28;;;;;;;6.38;4.70;;;1.40;86.60;;;;;;2082345;28;20021;-81
2021/01/30 04:31:29;;;;;;;6.18;4.60;;;1.50;86.70;;;;;;2085173;28;20086;-83
2021/01/30 04:32:30;;;;;;;5.75;3.90;;;1.40;86.70;;;;;;2090530;28;20188;-83
2021/01/30 04:33:30;;;;;;;6.72;4.18;;;1.40;86.70;;;;;;2082259;28;20128;-83
2021/01/30 04:34:31;;;;;;;6.63;4.20;;;1.40;86.60;;;;;;2073042;28;20037;-83
2021/01/30 04:35:36;;;;;;;4.95;3.45;;;1.40;86.50;;;;;;2073012;28;20038;-83
2021/01/30 04:36:37;;;;;;;5.00;3.58;;;1.40;86.40;;;;;;2082752;28;20030;-83
2021/01/30 04:37:37;;;;;;;4.43;3.13;;;1.40;86.50;;;;;;2090431;28;20045;-83
2021/01/30 04:38:39;;;;;;;5.18;3.60;;;1.30;86.50;;;;;;2074341;28;20037;-83
2021/01/30 04:39:39;;;;;;;5.43;3.60;;;1.30;86.60;;;;;;2064853;28;20548;-84
2021/01/30 04:40:44;;;;;;;5.20;3.40;;;1.30;87.20;;;;;;2073869;28;20052;-83
2021/01/30 04:42:10;;;;;;;5.07;3.20;;;1.30;86.50;;;;;;2074528;28;20396;-81
2021/01/30 04:43:17;;;;;;;5.05;3.10;;;1.30;86.50;;;;;;2079209;28;20033;-83
2021/01/30 04:44:27;;;;;;;4.38;2.92;;;1.30;86.50;;;;;;2085705;28;20017;-83
2021/01/30 04:45:48;;;;;;;4.13;2.92;;;1.20;86.30;;;;;;2081937;28;20032;-83
2021/01/30 04:47:08;;;;;;;;;;;1.20;86.20;;;;;;2075056;28;20637;-83
2021/01/30 04:48:38;;;;;;;4.28;2.70;;;1.20;86.20;;;;;;2070916;28;19972;-81
2021/01/30 04:50:00;;;;;;;4.00;2.58;;;1.20;86.20;;;;;;2074471;28;20509;-82
2021/01/30 04:51:21;;;;;;;4.28;2.72;;;1.20;86.20;;;;;;2082351;28;20105;-81
2021/01/30 04:52:33;;;;;;;4.30;2.75;;;1.20;86.10;;;;;;2082509;28;20022;-81
2021/01/30 04:53:39;;;;;;;3.97;2.80;;;1.20;86.10;;;;;;2090165;28;20128;-80
2021/01/30 04:55:02;;;;;;;5.13;2.95;;;1.20;86.20;;;;;;2083311;28;20022;-83
2021/01/30 04:56:22;;;;;;;4.47;3.08;;;1.20;86.10;;;;;;2084787;28;20087;-82
2021/01/30 04:57:37;;;;;;;4.77;2.93;;;1.10;85.90;;;;;;2086784;28;20039;-83
2021/01/30 04:58:59;;;;;;;4.55;2.85;;;1.10;85.90;;;;;;2082336;28;20276;-81
2021/01/30 05:00:06;;;;;;;4.82;3.10;;;1.10;85.90;;;;;;2081980;28;20032;-83
2021/01/30 05:01:11;;;;;;;4.13;2.50;;;1.10;85.80;;;;;;2077896;28;20030;-83
2021/01/30 05:02:43;;;;;;;4.20;2.88;;;1.10;85.80;;;;;;2081380;28;20032;-83
2021/01/30 05:04:00;;;;;;;4.57;3.00;;;1.10;85.90;;;;;;2081106;28;20038;-82
2021/01/30 05:05:03;;;;;;;4.20;2.60;;;1.10;85.90;;;;;;2078608;28;20122;-81
2021/01/30 05:06:19;;;;;;;4.45;2.90;;;1.10;85.90;;;;;;2094106;28;20490;-83
2021/01/30 05:07:59;;;;;;;4.00;2.58;;;1.10;85.90;;;;;;2096245;28;20029;-83
2021/01/30 05:09:05;;;;;;;3.97;2.60;;;1.10;86.00;;;;;;2077027;28;20022;-83
2021/01/30 05:10:41;;;;;;;4.65;3.00;;;1.00;85.90;;;;;;2079157;28;20025;-83
2021/01/30 05:11:48;;;;;;;4.10;2.70;;;1.10;86.00;;;;;;2078436;28;20030;-82
2021/01/30 05:12:55;;;;;;;4.65;2.70;;;1.00;86.00;;;;;;2082639;28;20026;-81
2021/01/30 05:14:07;;;;;;;4.38;2.75;;;1.00;86.00;;;;;;2089262;28;20033;-81
2021/01/30 05:15:21;;;;;;;4.40;2.97;;;1.00;86.00;;;;;;2075689;28;20030;-80
2021/01/30 05:16:31;;;;;;;4.30;2.70;;;1.00;86.00;;;;;;2081822;28;20053;-82
2021/01/30 05:17:36;;;;;;;4.85;3.25;;;1.00;86.60;;;;;;2081449;28;20095;-81
2021/01/30 05:18:47;;;;;;;3.90;2.65;;;1.00;86.00;;;;;;2089805;28;20025;-81
2021/01/30 05:19:54;;;;;;;4.15;2.63;;;1.00;86.00;;;;;;2080406;28;20029;-81
2021/01/30 05:21:10;;;;;;;3.88;2.45;;;1.00;86.00;;;;;;2075048;28;20038;-81
2021/01/30 05:22:15;;;;;;;4.63;2.83;;;1.00;86.10;;;;;;2081803;28;20439;-82
2021/01/30 05:23:16;;;;;;;4.63;2.80;;;1.00;86.20;;;;;;2080942;28;20017;-82
2021/01/30 05:24:19;;;;;;;4.60;2.70;;;0.90;86.20;;;;;;2085772;28;20028;-82
2021/01/30 05:25:23;;;;;;;4.25;2.75;;;0.90;86.20;;;;;;2089399;28;20056;-82
2021/01/30 05:26:49;;;;;;;4.75;2.88;;;0.90;86.20;;;;;;2081425;28;20044;-82
2021/01/30 05:28:43;;;;;;;4.57;3.00;;;0.90;86.30;;;;;;2084779;28;20054;-82
2021/01/30 05:29:51;;;;;;;4.78;3.00;;;0.90;86.30;;;;;;2073458;28;20030;-81
2021/01/30 05:31:03;;;;;;;5.30;3.45;;;0.90;86.40;;;;;;2066563;28;20064;-82
2021/01/30 05:32:31;;;;;;;5.25;3.05;;;0.80;86.20;;;;;;2078485;28;20042;-82
2021/01/30 05:33:55;;;;;;;5.25;3.60;;;0.80;86.40;;;;;;2091180;28;20024;-81
2021/01/30 05:34:58;;;;;;;5.53;3.42;;;0.80;86.40;;;;;;2090678;28;20101;-83
2021/01/30 05:36:07;;;;;;;4.93;3.30;;;0.80;86.50;;;;;;2091178;28;20025;-81
2021/01/30 05:37:12;;;;;;;5.90;3.50;;;0.80;86.60;;;;;;2090799;28;20029;-82
2021/01/30 05:38:36;;;;;;;4.65;3.17;;;0.80;86.60;;;;;;2098169;28;20032;-81
2021/01/30 05:39:51;;;;;;;5.07;3.40;;;0.80;86.70;;;;;;2073033;28;20133;-81
2021/01/30 05:41:02;;;;;;;5.60;3.60;;;0.80;86.70;;;;;;2083974;28;20052;-82
2021/01/30 05:42:25;;;;;;;5.30;3.47;;;0.90;86.80;;;;;;2082328;28;20022;-82
2021/01/30 05:43:34;;;;;;;5.63;3.40;;;0.80;86.70;;;;;;2090319;28;20021;-81
2021/01/30 05:44:41;;;;;;;5.07;3.35;;;0.90;86.80;;;;;;2090120;28;20039;-82
2021/01/30 05:45:44;;;;;;;4.53;3.10;;;0.90;86.80;;;;;;2097877;28;20025;-83